EFMA/MHQ METAR and TAF weather

Enter ICAO airport designator
Station Type Date Time Source
EFMA METAR 2021/04/17 03:20 UTC NOAA

EFMA 170320Z AUTO 02007KT CAVOK 03/M04 Q1030


Station Type Date Time Source
EFMA Decoded METAR 2021/04/17 03:20 UTC NOAA

Mariehamn / Aland Island, Finland (EFMA) 60-07N 019-54E
Apr 16, 2021 - 11:20 PM EDT / 2021.04.17 0320 UTC
Wind: from the NNE (020 degrees) at 8 MPH (7 KT):0
Visibility: greater than 7 mile(s):0
Temperature: 37 F (3 C)
Dew Point: 24 F (-4 C)
Relative Humidity: 59%
Pressure (altimeter): 30.42 in. Hg (1030 hPa)
ob: EFMA 170320Z AUTO 02007KT CAVOK 03/M04 Q1030
cycle: 3

Station Type Date Time Source
EFMA TAF 2014/05/01 21:18 UTC NOAA

TAF TAF EFMA 302037Z 3021/0106 08008KT CAVOK
TEMPO 3023/0101 02010KT 6000 RASN
BECMG 0101/0103 01012KT 4000 RASN BKN010 OVC025

Example: see airport list